Lincoln, Michigan
Current Conditions -  °F | °C
As of 3:13 PM on Monday 24 Nov 2014 (Local Time) from KOSC Reporting Station
Moderate Rain Moderate Rain  
Wind Chill: 50°   Ceiling: 1600
Heat Index: 50°   Visibility: 7mi
Dew Point: 49°   Wind: 12mph
Humidity: 97%   Direction: 230°SW
Pressure: 29.04"   Gusts: NA
Location:  44.68°N, 83.41°W
Report Text: KOSC 242013Z AUTO 23010KT 7SM RA SCT011 BKN016 OVC045 10/09 A2904 RMK AO2 P0001 T01000096
Loading
Personal Weather Stations






























Interactive Weather Map New forecast layout! Learn more

10-Day Weather Forecast

Advertisements
Track Severe Weather on mobile